Statia Express — V7TT3 — position and weather

sailwx.info

Track history (hours):
 
Tides and Currents Weather Stations Pressure Air Temp Water Temp Dewpoint Dewpoint Depression Visibility Wind Speed Wind Dir Waves Ship Positions

Statia Express

Last reported at 2016-Apr-30 21:31 UTC. Time now 2016-May-04 06:03 UTC.
Position N 17°42' W 063°04'.

Length 28 m; draft 4.1 m.

Type: Tug. MMSI: 538003879.

Date/timePositionNaut miles runAvg speedWind from/ knotsBaromVisibWave heightAir tempDewpointWater temp
2016-Apr-30 21:31N 17°42' W 063°04'5 5.1
2016-Apr-30 20:32N 17°47' W 063°05'5 4.8
2016-Apr-30 19:33N 17°52' W 063°05'5 4.7
2016-Apr-30 18:31N 17°57' W 063°05'4 4.0
2016-Apr-30 17:33N 18°00' W 063°04'1 0.0
2016-Apr-30 01:06N 18°01' W 063°03'0 0.8
2016-Apr-30 00:30N 18°01' W 063°03'0 0.2
2016-Apr-29 21:30N 18°01' W 063°03'2 2.0
2016-Apr-29 20:33N 18°01' W 063°05'0 0.0
2016-Apr-29 19:33N 18°01' W 063°05'0 0.0
2016-Apr-29 18:31N 18°01' W 063°05'0 0.0
2016-Apr-29 17:32N 18°01' W 063°05'0 0.0
2016-Apr-29 16:30N 18°01' W 063°05'0 0.0
2016-Apr-29 15:32N 18°01' W 063°05'0 0.0
2016-Apr-29 14:32N 18°01' W 063°05'0 0.0
2016-Apr-29 13:28N 18°01' W 063°05'0 0.0
2016-Apr-29 12:30N 18°01' W 063°05'0 0.0
2016-Apr-29 11:31N 18°01' W 063°05'0 0.2
2016-Apr-29 10:28N 18°01' W 063°05'3 2.8
2016-Apr-29 09:32N 17°59' W 063°04'5 5.1
2016-Apr-29 08:31N 17°53' W 063°05'5 5.4
2016-Apr-29 07:32N 17°48' W 063°04'  
2016-Apr-22 07:30N 17°46' W 063°04'5 5.7
2016-Apr-22 06:33N 17°51' W 063°05'6 5.7
2016-Apr-22 05:33N 17°57' W 063°05'4 3.7
2016-Apr-22 04:33N 18°00' W 063°04'0 0.2
2016-Apr-22 03:27N 18°00' W 063°04'9 9.3
2016-Apr-22 02:30N 17°52' W 063°05'10 1.8
2016-Apr-21 21:03N 17°42' W 063°04'3 6.4
2016-Apr-21 20:30N 17°45' W 063°04'7 6.5
2016-Apr-21 19:28N 17°52' W 063°05'6 6.6
2016-Apr-21 18:30N 17°58' W 063°05'3 0.5
2016-Apr-21 12:25N 18°01' W 063°03'3 2.4
2016-Apr-21 11:22N 17°60' W 063°06'4 4.6
2016-Apr-21 10:33N 17°56' W 063°07'5 4.8
2016-Apr-21 09:30N 17°51' W 063°07'3 0.4
2016-Apr-21 01:31N 17°50' W 063°04'1010.5
2016-Apr-21 00:33N 17°60' W 063°04'  
Track history (hours):
 
Tides and Currents Weather Stations Pressure Air Temp Water Temp Dewpoint Dewpoint Depression Visibility Wind Speed Wind Dir Waves Ship Positions

Statia Express

Last reported at 2016-Apr-30 21:31 UTC. Time now 2016-May-04 06:03 UTC.
Position N 17°42' W 063°04'.

Length 28 m; draft 4.1 m.

Type: Tug. MMSI: 538003879.

Date/timePositionNaut miles runAvg speedWind from/ knotsBaromVisibWave heightAir tempDewpointWater temp
2016-Apr-30 21:31N 17°42' W 063°04'5 5.1
2016-Apr-30 20:32N 17°47' W 063°05'5 4.8
2016-Apr-30 19:33N 17°52' W 063°05'5 4.7
2016-Apr-30 18:31N 17°57' W 063°05'4 4.0
2016-Apr-30 17:33N 18°00' W 063°04'1 0.0
2016-Apr-30 01:06N 18°01' W 063°03'0 0.8
2016-Apr-30 00:30N 18°01' W 063°03'0 0.2
2016-Apr-29 21:30N 18°01' W 063°03'2 2.0
2016-Apr-29 20:33N 18°01' W 063°05'0 0.0
2016-Apr-29 19:33N 18°01' W 063°05'0 0.0
2016-Apr-29 18:31N 18°01' W 063°05'0 0.0
2016-Apr-29 17:32N 18°01' W 063°05'0 0.0
2016-Apr-29 16:30N 18°01' W 063°05'0 0.0
2016-Apr-29 15:32N 18°01' W 063°05'0 0.0
2016-Apr-29 14:32N 18°01' W 063°05'0 0.0
2016-Apr-29 13:28N 18°01' W 063°05'0 0.0
2016-Apr-29 12:30N 18°01' W 063°05'0 0.0
2016-Apr-29 11:31N 18°01' W 063°05'0 0.2
2016-Apr-29 10:28N 18°01' W 063°05'3 2.8
2016-Apr-29 09:32N 17°59' W 063°04'5 5.1
2016-Apr-29 08:31N 17°53' W 063°05'5 5.4
2016-Apr-29 07:32N 17°48' W 063°04'  
2016-Apr-22 07:30N 17°46' W 063°04'5 5.7
2016-Apr-22 06:33N 17°51' W 063°05'6 5.7
2016-Apr-22 05:33N 17°57' W 063°05'4 3.7
2016-Apr-22 04:33N 18°00' W 063°04'0 0.2
2016-Apr-22 03:27N 18°00' W 063°04'9 9.3
2016-Apr-22 02:30N 17°52' W 063°05'10 1.8
2016-Apr-21 21:03N 17°42' W 063°04'3 6.4
2016-Apr-21 20:30N 17°45' W 063°04'7 6.5
2016-Apr-21 19:28N 17°52' W 063°05'6 6.6
2016-Apr-21 18:30N 17°58' W 063°05'3 0.5
2016-Apr-21 12:25N 18°01' W 063°03'3 2.4
2016-Apr-21 11:22N 17°60' W 063°06'4 4.6
2016-Apr-21 10:33N 17°56' W 063°07'5 4.8
2016-Apr-21 09:30N 17°51' W 063°07'3 0.4
2016-Apr-21 01:31N 17°50' W 063°04'1010.5
2016-Apr-21 00:33N 17°60' W 063°04'  

Dump ship's entire track history